Station Historical Data
Daily Summary for January 20, 2017 Units:  Metric    English   Both
« Previous Day
Next Day »
Daily Weekly Monthly Yearly Custom
  High: Low: Average:
Temperature: 8.4 °C 1.2 °C 4.3 °C
Dew Point: 7.8 °C 0.4 °C 3.3 °C
Humidity: 96% 85% 93%
Wind Speed: 17.7km/h 0km/h 2.4km/h
Wind Gust: 22.5km/h - -
Wind- - East
Pressure: 1015.5 hPa 1006.3 hPa -
Precipitation: 0 mm    
Historical Graphs
 
 
Tabular Data for January 20, 2017
Time Temperature Dew Point Pressure Wind Wind Speed Wind Gust Humidity Rainfall Rate (Hourly)
00:04 1.2 °C 0.4 °C 1015.5 hPa Calm     95% 0 mm
00:09 1.2 °C 0.4 °C 1015.1 hPa Calm     95% 0 mm
00:14 1.2 °C 0.5 °C 1015.1 hPa South 1.6 km/h 3.2 km/h 95% 0 mm
00:19 1.2 °C 0.4 °C 1015.1 hPa Calm   3.2 km/h 95% 0 mm
00:24 1.2 °C 0.5 °C 1015.1 hPa Calm   3.2 km/h 95% 0 mm
00:29 1.2 °C 0.5 °C 1014.8 hPa ENE 1.6 km/h 4.8 km/h 95% 0 mm
00:34 1.2 °C 0.5 °C 1014.8 hPa ENE 1.6 km/h 4.8 km/h 95% 0 mm
00:39 1.2 °C 0.5 °C 1014.8 hPa Calm   4.8 km/h 95% 0 mm
00:44 1.2 °C 0.5 °C 1014.8 hPa ENE 1.6 km/h 6.4 km/h 95% 0 mm
00:49 1.2 °C 0.5 °C 1014.8 hPa ENE 3.2 km/h 4.8 km/h 95% 0 mm
00:54 1.3 °C 0.6 °C 1014.4 hPa NE 3.2 km/h 8 km/h 95% 0 mm
00:59 1.2 °C 0.5 °C 1014.4 hPa NE 3.2 km/h 4.8 km/h 95% 0 mm
01:04 1.3 °C 0.6 °C 1014.4 hPa NE 3.2 km/h 4.8 km/h 95% 0 mm
01:09 1.3 °C 0.6 °C 1014.1 hPa NE 3.2 km/h 8 km/h 95% 0 mm
01:14 1.3 °C 0.6 °C 1014.1 hPa ENE 4.8 km/h 6.4 km/h 95% 0 mm
01:19 1.3 °C 0.6 °C 1014.1 hPa ENE 1.6 km/h 4.8 km/h 95% 0 mm
01:24 1.3 °C 0.6 °C 1014.1 hPa NE 3.2 km/h 6.4 km/h 95% 0 mm
01:29 1.3 °C 0.6 °C 1014.1 hPa NE 3.2 km/h 6.4 km/h 95% 0 mm
01:34 1.3 °C 0.6 °C 1014.1 hPa NE 3.2 km/h 6.4 km/h 95% 0 mm
01:39 1.3 °C 0.6 °C 1014.1 hPa NE 3.2 km/h 6.4 km/h 95% 0 mm
01:44 1.3 °C 0.6 °C 1014.1 hPa NE 3.2 km/h 6.4 km/h 95% 0 mm
01:49 1.3 °C 0.6 °C 1014.1 hPa Calm   3.2 km/h 95% 0 mm
01:54 1.3 °C 0.6 °C 1014.1 hPa NE 1.6 km/h 6.4 km/h 95% 0 mm
01:59 1.3 °C 0.6 °C 1013.8 hPa NE 1.6 km/h 4.8 km/h 95% 0 mm
02:04 1.3 °C 0.6 °C 1014.1 hPa Calm   3.2 km/h 95% 0 mm
02:09 1.4 °C 0.7 °C 1014.1 hPa ENE 1.6 km/h 4.8 km/h 95% 0 mm
02:14 1.4 °C 0.7 °C 1014.1 hPa NE 3.2 km/h 4.8 km/h 95% 0 mm
02:19 1.4 °C 0.7 °C 1014.1 hPa Calm   4.8 km/h 95% 0 mm
02:24 1.4 °C 0.7 °C 1014.1 hPa Calm     95% 0 mm
02:29 1.4 °C 0.7 °C 1014.1 hPa Calm     95% 0 mm
02:34 1.4 °C 0.7 °C 1014.1 hPa Calm     95% 0 mm
02:39 1.4 °C 0.7 °C 1013.8 hPa Calm     95% 0 mm
02:44 1.4 °C 0.7 °C 1013.8 hPa Calm     95% 0 mm
02:49 1.4 °C 0.7 °C 1013.8 hPa Calm     95% 0 mm
02:54 1.4 °C 0.7 °C 1013.8 hPa Calm     95% 0 mm
02:59 1.4 °C 0.7 °C 1013.8 hPa Calm     95% 0 mm
03:04 1.5 °C 0.8 °C 1013.4 hPa Calm     95% 0 mm
03:09 1.4 °C 0.7 °C 1013.4 hPa Calm     95% 0 mm
03:14 1.5 °C 0.8 °C 1013.4 hPa Calm     95% 0 mm
03:19 1.5 °C 0.8 °C 1013.1 hPa Calm     95% 0 mm
03:24 1.6 °C 0.8 °C 1013.1 hPa NE 4.8 km/h 6.4 km/h 95% 0 mm
03:29 1.6 °C 0.8 °C 1013.1 hPa NE 3.2 km/h 4.8 km/h 95% 0 mm
03:34 1.6 °C 0.9 °C 1012.8 hPa NE 3.2 km/h 6.4 km/h 95% 0 mm
03:39 1.7 °C 0.9 °C 1012.8 hPa NE 3.2 km/h 6.4 km/h 95% 0 mm
03:44 1.7 °C 0.9 °C 1012.8 hPa NE 1.6 km/h 4.8 km/h 95% 0 mm
03:49 1.7 °C 1 °C 1012.4 hPa Calm   4.8 km/h 95% 0 mm
03:54 1.7 °C 1 °C 1012.4 hPa Calm   4.8 km/h 95% 0 mm
03:59 1.8 °C 1.1 °C 1012.4 hPa NE 3.2 km/h 6.4 km/h 95% 0 mm
04:04 1.8 °C 1.1 °C 1012.1 hPa NE 3.2 km/h 6.4 km/h 95% 0 mm
04:09 1.8 °C 1.1 °C 1012.1 hPa NE 3.2 km/h 6.4 km/h 95% 0 mm
04:14 1.9 °C 1.2 °C 1012.1 hPa NE 1.6 km/h 6.4 km/h 95% 0 mm
04:19 1.8 °C 1.1 °C 1012.1 hPa Calm   3.2 km/h 95% 0 mm
04:24 1.9 °C 1.2 °C 1012.1 hPa Calm     95% 0 mm
04:29 1.9 °C 1.2 °C 1012.1 hPa Calm     95% 0 mm
04:34 1.9 °C 1.2 °C 1011.7 hPa NE 1.6 km/h 4.8 km/h 95% 0 mm
04:39 2 °C 1.3 °C 1011.7 hPa NE 1.6 km/h 6.4 km/h 95% 0 mm
04:44 2 °C 1.3 °C 1011.7 hPa ENE 1.6 km/h 6.4 km/h 95% 0 mm
04:49 2.1 °C 1.3 °C 1011.7 hPa Calm   3.2 km/h 95% 0 mm
04:54 2.1 °C 1.3 °C 1011.7 hPa Calm     95% 0 mm
04:59 2.1 °C 1.3 °C 1011.7 hPa Calm     95% 0 mm
05:04 2.1 °C 1.3 °C 1011.4 hPa East 3.2 km/h 4.8 km/h 95% 0 mm
05:09 2.1 °C 1.4 °C 1011.4 hPa ENE 1.6 km/h 4.8 km/h 95% 0 mm
05:14 2.1 °C 1.3 °C 1011.4 hPa ENE 1.6 km/h 4.8 km/h 95% 0 mm
05:19 2.1 °C 1.4 °C 1011.4 hPa Calm   3.2 km/h 95% 0 mm
05:24 2.2 °C 1.4 °C 1011.1 hPa ENE 1.6 km/h 6.4 km/h 95% 0 mm
05:29 2.1 °C 1.4 °C 1011.1 hPa NE 3.2 km/h 8 km/h 95% 0 mm
05:34 2.2 °C 1.4 °C 1011.1 hPa NE 3.2 km/h 8 km/h 95% 0 mm
05:39 2.1 °C 1.4 °C 1011.1 hPa NE 3.2 km/h 6.4 km/h 95% 0 mm
05:44 2.1 °C 1.4 °C 1011.1 hPa NE 3.2 km/h 6.4 km/h 95% 0 mm
05:49 2.1 °C 1.4 °C 1010.7 hPa NE 4.8 km/h 6.4 km/h 95% 0 mm
05:54 2.1 °C 1.4 °C 1010.7 hPa NE 3.2 km/h 6.4 km/h 95% 0 mm
05:59 2.1 °C 1.4 °C 1010.7 hPa ENE 1.6 km/h 6.4 km/h 95% 0 mm
06:04 2.1 °C 1.4 °C 1010.7 hPa ENE 4.8 km/h 9.7 km/h 95% 0 mm
06:09 2.1 °C 1.4 °C 1010.7 hPa ENE 3.2 km/h 8 km/h 95% 0 mm
06:14 2.1 °C 1.4 °C 1010.7 hPa ENE 3.2 km/h 8 km/h 95% 0 mm
06:19 2.1 °C 1.4 °C 1010.7 hPa ENE 3.2 km/h 8 km/h 95% 0 mm
06:24 2.1 °C 1.4 °C 1010.7 hPa East 1.6 km/h 8 km/h 95% 0 mm
06:29 2.1 °C 1.3 °C 1010.7 hPa East 1.6 km/h 6.4 km/h 95% 0 mm
06:34 2.1 °C 1.4 °C 1010.7 hPa East 3.2 km/h 9.7 km/h 95% 0 mm
06:39 2.1 °C 1.4 °C 1010.7 hPa Calm   4.8 km/h 95% 0 mm
06:44 2.2 °C 1.4 °C 1010.7 hPa Calm   3.2 km/h 95% 0 mm
06:49 2.1 °C 1.4 °C 1010.4 hPa Calm   8 km/h 95% 0 mm
06:54 2.1 °C 1.4 °C 1010.7 hPa ESE 1.6 km/h 4.8 km/h 95% 0 mm
06:59 2.1 °C 1.4 °C 1010.7 hPa Calm   6.4 km/h 95% 0 mm
07:04 2.2 °C 1.4 °C 1010.4 hPa ESE 1.6 km/h 4.8 km/h 95% 0 mm
07:09 2.1 °C 1.4 °C 1010.4 hPa ESE 1.6 km/h 8 km/h 95% 0 mm
07:14 2.1 °C 1.4 °C 1010 hPa ENE 1.6 km/h 4.8 km/h 95% 0 mm
07:19 2.1 °C 1.4 °C 1010 hPa East 1.6 km/h 4.8 km/h 95% 0 mm
07:24 2.1 °C 1.3 °C 1010.4 hPa East 3.2 km/h 6.4 km/h 95% 0 mm
07:29 2.1 °C 1.3 °C 1010.4 hPa ESE 1.6 km/h 6.4 km/h 95% 0 mm
07:34 2.1 °C 1.3 °C 1010.4 hPa ESE 1.6 km/h 8 km/h 95% 0 mm
07:39 2.1 °C 1.3 °C 1010 hPa ESE 3.2 km/h 8 km/h 95% 0 mm
07:44 2.1 °C 1.3 °C 1010 hPa ESE 3.2 km/h 8 km/h 95% 0 mm
07:49 2.1 °C 1.3 °C 1010 hPa ESE 3.2 km/h 8 km/h 95% 0 mm
07:54 2 °C 1.3 °C 1010 hPa SE 4.8 km/h 9.7 km/h 95% 0 mm
07:59 2 °C 1.1 °C 1009.7 hPa NE 1.6 km/h 6.4 km/h 94% 0 mm
08:04 1.9 °C 1.1 °C 1009.7 hPa Calm   8 km/h 94% 0 mm
08:09 1.9 °C 1.1 °C 1009.7 hPa East 3.2 km/h 4.8 km/h 94% 0 mm
08:14 1.9 °C 1 °C 1009.4 hPa ENE 3.2 km/h 6.4 km/h 94% 0 mm
08:19 1.9 °C 1 °C 1009.4 hPa ENE 3.2 km/h 6.4 km/h 94% 0 mm
08:24 1.8 °C 0.9 °C 1009.4 hPa ENE 3.2 km/h 6.4 km/h 94% 0 mm
08:29 1.9 °C 1 °C 1009.4 hPa ENE 3.2 km/h 8 km/h 94% 0 mm
08:34 1.9 °C 1 °C 1009.4 hPa ENE 3.2 km/h 8 km/h 94% 0 mm
08:39 1.9 °C 1 °C 1009.4 hPa ENE 3.2 km/h 8 km/h 94% 0 mm
08:44 1.9 °C 1.1 °C 1009.4 hPa East 3.2 km/h 8 km/h 94% 0 mm
08:49 1.9 °C 1.1 °C 1009.4 hPa Calm   6.4 km/h 94% 0 mm
08:54 2 °C 1.1 °C 1009.4 hPa ENE 3.2 km/h 8 km/h 94% 0 mm
08:59 2.2 °C 1.3 °C 1009.4 hPa ENE 1.6 km/h 8 km/h 94% 0 mm
09:04 2.4 °C 1.4 °C 1009.4 hPa East 3.2 km/h 8 km/h 93% 0 mm
09:09 2.6 °C 1.4 °C 1009.4 hPa East 3.2 km/h 4.8 km/h 92% 0 mm
09:14 2.8 °C 1.4 °C 1009 hPa ENE 4.8 km/h 4.8 km/h 91% 0 mm
09:19 2.9 °C 1.4 °C 1009 hPa East 3.2 km/h 6.4 km/h 90% 0 mm
09:24 3.1 °C 1.6 °C 1009 hPa East 1.6 km/h 8 km/h 90% 0 mm
09:29 3.2 °C 1.6 °C 1009 hPa Calm   11.3 km/h 89% 0 mm
09:34 3.3 °C 1.6 °C 1009 hPa ENE 3.2 km/h 11.3 km/h 89% 0 mm
09:39 3.3 °C 1.5 °C 1009 hPa ENE 3.2 km/h 9.7 km/h 88% 0 mm
09:44 3.3 °C 1.6 °C 1009 hPa ENE 3.2 km/h 9.7 km/h 88% 0 mm
09:49 3.3 °C 1.6 °C 1009 hPa NE 3.2 km/h 8 km/h 88% 0 mm
09:54 3.4 °C 1.7 °C 1009.4 hPa East 4.8 km/h 8 km/h 88% 0 mm
09:59 3.5 °C 1.7 °C 1009.4 hPa ENE 1.6 km/h 8 km/h 88% 0 mm
10:04 3.7 °C 1.9 °C 1009.4 hPa Calm   4.8 km/h 88% 0 mm
10:09 3.7 °C 1.9 °C 1009.4 hPa Calm   4.8 km/h 88% 0 mm
10:19 3.8 °C 2 °C 1009.4 hPa Calm   4.8 km/h 88% 0 mm
10:44 4.1 °C 2.3 °C 1009.4 hPa NE 4.8 km/h 6.4 km/h 88% 0 mm
10:49 4.2 °C 2.2 °C 1009 hPa ENE 3.2 km/h 6.4 km/h 87% 0 mm
10:54 4.2 °C 2.2 °C 1009 hPa NE 3.2 km/h 4.8 km/h 87% 0 mm
10:59 4.3 °C 2.2 °C 1009 hPa NE 3.2 km/h 6.4 km/h 86% 0 mm
11:04 4.3 °C 2.3 °C 1009 hPa NE 1.6 km/h 6.4 km/h 87% 0 mm
11:09 4.4 °C 2.4 °C 1008.7 hPa Calm   4.8 km/h 87% 0 mm
11:14 4.6 °C 2.6 °C 1008.7 hPa Calm   4.8 km/h 87% 0 mm
11:19 4.6 °C 2.6 °C 1008.7 hPa NE 1.6 km/h 6.4 km/h 87% 0 mm
11:24 4.6 °C 2.4 °C 1008.7 hPa ENE 6.4 km/h 6.4 km/h 86% 0 mm
11:29 4.6 °C 2.4 °C 1008.4 hPa ENE 4.8 km/h 6.4 km/h 86% 0 mm
11:44 5.1 °C 2.9 °C 1008.4 hPa NE 1.6 km/h 6.4 km/h 86% 0 mm
11:49 5.1 °C 2.7 °C 1008.4 hPa ENE 3.2 km/h 6.4 km/h 85% 0 mm
11:54 5.1 °C 2.9 °C 1008.4 hPa NE 1.6 km/h 6.4 km/h 86% 0 mm
11:59 5.2 °C 3 °C 1008 hPa NE 3.2 km/h 6.4 km/h 86% 0 mm
12:04 5.2 °C 3 °C 1008 hPa NE 3.2 km/h 6.4 km/h 86% 0 mm
12:09 5.3 °C 3.1 °C 1008 hPa NE 3.2 km/h 8 km/h 86% 0 mm
12:14 5.3 °C 3.1 °C 1008 hPa NE 3.2 km/h 8 km/h 86% 0 mm
12:19 5.3 °C 3.2 °C 1007.7 hPa NE 4.8 km/h 8 km/h 86% 0 mm
12:24 5.4 °C 3.2 °C 1007.7 hPa NE 3.2 km/h 6.4 km/h 86% 0 mm
12:29 5.4 °C 3.3 °C 1007.7 hPa East 3.2 km/h 4.8 km/h 86% 0 mm
12:34 5.5 °C 3.3 °C 1007.3 hPa ENE 1.6 km/h 8 km/h 86% 0 mm
12:39 5.4 °C 3.4 °C 1007.3 hPa ENE 1.6 km/h 6.4 km/h 87% 0 mm
12:44 5.3 °C 3.5 °C 1007.3 hPa NE 4.8 km/h 8 km/h 88% 0.25 mm
12:49 5.3 °C 3.4 °C 1007 hPa NE 4.8 km/h 8 km/h 88% 0.25 mm
12:54 5.3 °C 3.6 °C 1007 hPa NE 1.6 km/h 4.8 km/h 89% 0.25 mm
12:59 5.2 °C 3.7 °C 1007 hPa NE 4.8 km/h 8 km/h 90% 0.51 mm
13:04 5.2 °C 3.7 °C 1007 hPa NE 4.8 km/h 8 km/h 90% 0.76 mm
13:09 5.2 °C 3.7 °C 1006.7 hPa NE 3.2 km/h 8 km/h 90% 1.27 mm
13:14 5.2 °C 3.9 °C 1006.7 hPa NE 3.2 km/h 6.4 km/h 91% 1.27 mm
13:19 5.3 °C 3.9 °C 1006.7 hPa NE 3.2 km/h 6.4 km/h 91% 1.52 mm
13:24 5.3 °C 3.8 °C 1006.7 hPa NE 3.2 km/h 6.4 km/h 90% 1.52 mm
13:29 5.4 °C 4.1 °C 1006.7 hPa NE 1.6 km/h 4.8 km/h 91% 1.52 mm
13:34 5.4 °C 4.1 °C 1006.7 hPa ENE 1.6 km/h 4.8 km/h 91% 1.52 mm
13:39 5.4 °C 4.1 °C 1006.3 hPa ENE 1.6 km/h 4.8 km/h 91% 1.78 mm
13:44 5.4 °C 4.1 °C 1006.7 hPa ENE 3.2 km/h 4.8 km/h 91% 1.52 mm
13:49 5.4 °C 4.1 °C 1006.3 hPa Calm   4.8 km/h 91% 1.52 mm
13:54 5.6 °C 4.3 °C 1006.3 hPa Calm     92% 1.78 mm
13:59 5.7 °C 4.4 °C 1006.3 hPa Calm     92% 1.52 mm
14:04 5.7 °C 4.4 °C 1006.3 hPa Calm     92% 1.27 mm
14:09 5.6 °C 4.3 °C 1006.3 hPa Calm   4.8 km/h 91% 0.76 mm
14:14 5.7 °C 4.4 °C 1006.3 hPa ENE 1.6 km/h 6.4 km/h 92% 0.76 mm
14:19 5.7 °C 4.4 °C 1006.7 hPa ENE 3.2 km/h 6.4 km/h 92% 0.51 mm
14:24 5.7 °C 4.4 °C 1006.7 hPa ENE 3.2 km/h 6.4 km/h 92% 0.51 mm
14:29 5.7 °C 4.4 °C 1006.7 hPa NE 3.2 km/h 6.4 km/h 92% 0.76 mm
14:34 5.8 °C 4.6 °C 1006.7 hPa NE 1.6 km/h 6.4 km/h 92% 0.76 mm
14:39 5.8 °C 4.6 °C 1006.7 hPa NE 1.6 km/h 6.4 km/h 92% 0.51 mm
14:44 5.8 °C 4.6 °C 1006.7 hPa NE 1.6 km/h 4.8 km/h 92% 0.51 mm
14:49 5.9 °C 4.7 °C 1006.7 hPa NE 1.6 km/h 4.8 km/h 92% 0.51 mm
14:54 5.9 °C 4.7 °C 1006.7 hPa NE 1.6 km/h 4.8 km/h 92% 0.51 mm
14:59 5.9 °C 4.7 °C 1006.7 hPa NE 1.6 km/h 4.8 km/h 92% 0.51 mm
15:04 5.9 °C 4.7 °C 1006.7 hPa NE 1.6 km/h 3.2 km/h 92% 0.51 mm
15:09 5.9 °C 4.9 °C 1006.7 hPa NE 1.6 km/h 3.2 km/h 93% 0.51 mm
15:14 5.9 °C 4.7 °C 1006.7 hPa NE 1.6 km/h 4.8 km/h 92% 0.51 mm
15:19 5.8 °C 4.8 °C 1006.7 hPa NE 3.2 km/h 4.8 km/h 93% 0.51 mm
15:24 5.9 °C 4.9 °C 1006.7 hPa NE 1.6 km/h 4.8 km/h 93% 0.76 mm
15:29 5.9 °C 4.9 °C 1006.7 hPa NE 1.6 km/h 6.4 km/h 93% 0.51 mm
15:34 5.9 °C 4.9 °C 1006.7 hPa NE 1.6 km/h 6.4 km/h 93% 0.51 mm
15:39 5.9 °C 4.9 °C 1006.7 hPa NE 1.6 km/h 6.4 km/h 93% 0.51 mm
15:44 5.9 °C 4.9 °C 1007 hPa NE 1.6 km/h 6.4 km/h 93% 0.51 mm
15:49 5.9 °C 4.9 °C 1006.7 hPa NE 1.6 km/h 4.8 km/h 93% 0.51 mm
15:54 6 °C 4.9 °C 1006.7 hPa NE 1.6 km/h 4.8 km/h 93% 0.25 mm
15:59 6.1 °C 5 °C 1006.7 hPa Calm   3.2 km/h 93% 0.25 mm
16:04 6.1 °C 5 °C 1007 hPa Calm   3.2 km/h 93% 0.25 mm
16:09 6.1 °C 5 °C 1007 hPa Calm     93% 0.51 mm
16:14 6.1 °C 5.2 °C 1006.7 hPa Calm     94% 0.51 mm
16:19 6.2 °C 5.3 °C 1006.7 hPa Calm     94% 0.51 mm
16:24 6.2 °C 5.3 °C 1006.7 hPa Calm     94% 0.25 mm
16:29 6.2 °C 5.3 °C 1006.7 hPa Calm     94% 0.25 mm
16:34 6.2 °C 5.3 °C 1006.7 hPa Calm     94% 0.25 mm
16:39 6.2 °C 5.3 °C 1006.7 hPa Calm     94% 0.25 mm
16:44 6.2 °C 5.3 °C 1006.7 hPa Calm     94% 0.25 mm
16:49 6.2 °C 5.3 °C 1006.7 hPa Calm     94% 0.25 mm
16:54 6.3 °C 5.4 °C 1006.7 hPa Calm     94% 0.25 mm
16:59 6.3 °C 5.4 °C 1006.7 hPa Calm     94% 0.25 mm
17:04 6.3 °C 5.4 °C 1006.7 hPa Calm     94% 0.25 mm
17:09 6.3 °C 5.4 °C 1006.7 hPa Calm     94% 0 mm
17:14 6.3 °C 5.4 °C 1006.7 hPa Calm     94% 0 mm
17:19 6.3 °C 5.4 °C 1006.7 hPa Calm     94% 0 mm
17:24 6.3 °C 5.4 °C 1007 hPa Calm     94% 0 mm
17:29 6.4 °C 5.5 °C 1006.7 hPa Calm     94% 0 mm
17:34 6.4 °C 5.5 °C 1006.7 hPa Calm     94% 0 mm
17:39 6.4 °C 5.5 °C 1007 hPa Calm     94% 0 mm
17:44 6.4 °C 5.5 °C 1007 hPa Calm     94% 0 mm
17:49 6.4 °C 5.6 °C 1007 hPa Calm     94% 0 mm
17:54 6.4 °C 5.6 °C 1007 hPa Calm     94% 0 mm
17:59 6.4 °C 5.6 °C 1007 hPa Calm     94% 0 mm
18:04 6.4 °C 5.6 °C 1007 hPa Calm     94% 0 mm
18:09 6.4 °C 5.6 °C 1007 hPa Calm     94% 0 mm
18:14 6.5 °C 5.6 °C 1007 hPa Calm     94% 0 mm
18:19 6.5 °C 5.6 °C 1007.3 hPa Calm     94% 0 mm
18:24 6.4 °C 5.6 °C 1007 hPa Calm     94% 0.25 mm
18:29 6.5 °C 5.6 °C 1007.3 hPa Calm     94% 0.25 mm
18:34 6.5 °C 5.6 °C 1007.3 hPa Calm     94% 0.25 mm
18:39 6.5 °C 5.6 °C 1007.3 hPa Calm     94% 0.25 mm
18:44 6.5 °C 5.6 °C 1007.3 hPa Calm     94% 0.25 mm
18:49 6.5 °C 5.6 °C 1007.3 hPa Calm     94% 0.25 mm
18:54 6.5 °C 5.6 °C 1007.3 hPa Calm     94% 0.25 mm
18:59 6.6 °C 5.7 °C 1007.3 hPa Calm     94% 0.25 mm
19:04 6.6 °C 5.7 °C 1007.3 hPa Calm     94% 0.25 mm
19:09 6.6 °C 5.7 °C 1007.3 hPa Calm     94% 0.25 mm
19:14 6.6 °C 5.7 °C 1007.3 hPa Calm     94% 0.25 mm
19:19 6.6 °C 5.7 °C 1007.3 hPa Calm     94% 0.25 mm
19:24 6.6 °C 5.9 °C 1007.3 hPa Calm     95% 0 mm
19:29 6.7 °C 5.8 °C 1007.3 hPa Calm     94% 0 mm
19:34 6.7 °C 5.8 °C 1007.3 hPa Calm     94% 0 mm
19:39 6.7 °C 5.8 °C 1007.3 hPa Calm     94% 0 mm
19:44 6.7 °C 5.8 °C 1007.3 hPa Calm     94% 0 mm
19:49 6.7 °C 6 °C 1007.3 hPa Calm     95% 0 mm
19:54 6.7 °C 6 °C 1007.3 hPa Calm     95% 0 mm
19:59 6.7 °C 6 °C 1007.3 hPa Calm     95% 0 mm
20:04 6.8 °C 6.1 °C 1007.3 hPa Calm     95% 0 mm
20:09 6.8 °C 6.1 °C 1007.7 hPa Calm     95% 0 mm
20:14 6.8 °C 6.1 °C 1007.3 hPa Calm     95% 0 mm
20:19 6.8 °C 6.1 °C 1007.3 hPa Calm     95% 0 mm
20:24 6.8 °C 6.1 °C 1007.3 hPa Calm     95% 0 mm
20:29 6.8 °C 6.1 °C 1007.3 hPa Calm     95% 0 mm
20:34 6.8 °C 6.1 °C 1007.3 hPa Calm     95% 0 mm
20:39 6.9 °C 6.2 °C 1007.7 hPa Calm     95% 0 mm
20:44 6.8 °C 6.1 °C 1007.7 hPa Calm     95% 0 mm
20:49 6.8 °C 6.1 °C 1007.7 hPa Calm     95% 0 mm
20:54 6.9 °C 6.2 °C 1007.7 hPa Calm     95% 0 mm
20:59 7 °C 6.3 °C 1007.7 hPa SW 1.6 km/h 6.4 km/h 95% 0 mm
21:04 7.3 °C 6.6 °C 1007.7 hPa SW 3.2 km/h 8 km/h 95% 0 mm
21:09 7.6 °C 6.9 °C 1007.7 hPa SSW 4.8 km/h 9.7 km/h 95% 0 mm
21:14 7.9 °C 7.3 °C 1007.7 hPa WSW 3.2 km/h 9.7 km/h 96% 0 mm
21:19 8.1 °C 7.4 °C 1008 hPa SW 6.4 km/h 8 km/h 96% 0 mm
21:24 8.2 °C 7.4 °C 1008 hPa WSW 3.2 km/h 8 km/h 95% 0 mm
21:29 8.3 °C 7.7 °C 1008 hPa SW 4.8 km/h 9.7 km/h 96% 0 mm
21:34 8.4 °C 7.8 °C 1008 hPa SW 6.4 km/h 12.9 km/h 96% 0 mm
21:39 8.4 °C 7.7 °C 1008 hPa WSW 6.4 km/h 12.9 km/h 95% 0 mm
21:44 8.4 °C 7.7 °C 1008 hPa SW 16.1 km/h 17.7 km/h 95% 0 mm
21:49 8.4 °C 7.6 °C 1008 hPa WSW 8 km/h 14.5 km/h 95% 0 mm
21:54 8.3 °C 7.6 °C 1008 hPa SW 9.7 km/h 16.1 km/h 95% 0 mm
21:59 8.2 °C 7.4 °C 1008 hPa WSW 8 km/h 16.1 km/h 95% 0 mm
22:04 8.1 °C 7.3 °C 1008 hPa WSW 8 km/h 16.1 km/h 95% 0 mm
22:09 7.9 °C 7.2 °C 1008.4 hPa SW 4.8 km/h 14.5 km/h 95% 0 mm
22:14 7.8 °C 7.1 °C 1008.4 hPa WSW 17.7 km/h 20.9 km/h 95% 0 mm
22:19 7.7 °C 6.9 °C 1008.4 hPa SSW 9.7 km/h 20.9 km/h 95% 0 mm
22:24 7.6 °C 6.9 °C 1008.4 hPa WSW 11.3 km/h 16.1 km/h 95% 0 mm
22:29 7.6 °C 6.8 °C 1008.4 hPa WSW 9.7 km/h 16.1 km/h 95% 0 mm
22:34 7.6 °C 6.8 °C 1008.4 hPa WSW 9.7 km/h 20.9 km/h 95% 0 mm
22:39 7.6 °C 6.8 °C 1008.4 hPa WSW 9.7 km/h 20.9 km/h 95% 0 mm
22:44 7.5 °C 6.8 °C 1008.4 hPa SSW 11.3 km/h 20.9 km/h 95% 0 mm
22:49 7.4 °C 6.7 °C 1008.4 hPa SW 8 km/h 19.3 km/h 95% 0 mm
22:54 7.3 °C 6.6 °C 1008.7 hPa SW 11.3 km/h 19.3 km/h 95% 0 mm
22:59 7.2 °C 6.4 °C 1008.7 hPa SW 4.8 km/h 16.1 km/h 95% 0 mm
23:04 6.8 °C 5.9 °C 1008.7 hPa SW 9.7 km/h 22.5 km/h 94% 0 mm
23:09 6.6 °C 5.7 °C 1008.7 hPa SW 11.3 km/h 22.5 km/h 94% 0 mm
23:14 6.3 °C 5.4 °C 1008.7 hPa WSW 8 km/h 17.7 km/h 94% 0 mm
23:19 6.2 °C 5.4 °C 1008.7 hPa SW 9.7 km/h 14.5 km/h 95% 0 mm
23:24 6.1 °C 5.3 °C 1008.7 hPa South 4.8 km/h 17.7 km/h 95% 0 mm
23:29 6 °C 5.3 °C 1008.7 hPa West 6.4 km/h 16.1 km/h 95% 0 mm
23:34 5.9 °C 5.2 °C 1008.7 hPa SW 8 km/h 16.1 km/h 95% 0 mm
23:39 5.9 °C 5.2 °C 1009 hPa WSW 8 km/h 16.1 km/h 95% 0 mm
23:44 5.8 °C 5.1 °C 1009 hPa WSW 8 km/h 16.1 km/h 95% 0 mm
23:49 5.7 °C 4.9 °C 1009 hPa SW 9.7 km/h 16.1 km/h 95% 0 mm
23:54 5.6 °C 4.8 °C 1009 hPa WSW 6.4 km/h 14.5 km/h 95% 0 mm
23:59 5.4 °C 4.7 °C 1009 hPa WSW 9.7 km/h 17.7 km/h 95% 0 mm
Buffalo, New York, USA
Compliments of Weather Underground - 2.5 mb